Flight Track Log - Related Links

Times and Time Zones

All times are in EDT time to prevent confusion due to time zone crossing. See the C-FSJU flight status page for this flight to view local times or setup timezone preferences in your user account.

Time Position Orientation Groundspeed Altitude Reporting Facility
EDT Latitude Longitude Course Direction KTS MPH feet Rate Location/Type
Tue 10:12:00 AM 42.5542 -71.1188 152° Southeast  Level FlightAware Approximate
Tue 10:12:14 AM 42.3167 -70.9500 57° Northeast 213 245 4,500  Level Boston TRACON
Tue 10:15:06 AM 42.4269 -70.7186 348° North 301 346 11,800 2,509 Climbing Boston Center
Tue 10:16:06 AM 42.4897 -70.7367 323° Northwest 259 298 14,200 2,200 Climbing Boston Center
Tue 10:17:06 AM 42.5575 -70.8053 303° West 274 315 16,200 2,250 Climbing Boston Center
Tue 10:18:06 AM 42.6111 -70.9167 296° West 273 314 18,700 2,250 Climbing Boston Center
Tue 10:19:06 AM 42.6478 -71.0175 303° West 298 343 20,700 1,800 Climbing Boston Center
Tue 10:20:06 AM 42.6950 -71.1153 306° West 308 354 22,300 1,550 Climbing Boston Center
Tue 10:21:06 AM 42.7481 -71.2158 313° West 324 373 23,800 1,400 Climbing Boston Center
Tue 10:22:06 AM 42.8094 -71.3053 326° Northwest 329 379 25,100 1,250 Climbing Boston Center
Tue 10:23:06 AM 42.8811 -71.3719 322° Northwest 340 391 26,300 1,100 Climbing Boston Center
Tue 10:24:06 AM 42.9694 -71.4669 324° Northwest 361 415 27,300 850 Climbing Boston Center
Tue 10:25:06 AM 43.0428 -71.5394 325° Northwest 367 422 28,000 350 Climbing Boston Center
Tue 10:26:06 AM 43.1289 -71.6208 324° Northwest 378 435 28,000  Level Boston Center
Tue 10:27:06 AM 43.2233 -71.7164 324° Northwest 383 441 28,000  Level Boston Center
Tue 10:28:06 AM 43.3072 -71.8011 323° Northwest 383 441 28,000  Level Boston Center
Tue 10:29:06 AM 43.3889 -71.8858 324° Northwest 383 441 28,000  Level Boston Center
Tue 10:30:06 AM 43.4706 -71.9681 324° Northwest 378 435 28,000  Level Boston Center
Tue 10:31:06 AM 43.5522 -72.0506 323° Northwest 373 429 28,000  Level Boston Center
Tue 10:32:06 AM 43.6336 -72.1361 324° Northwest 373 429 28,000  Level Boston Center
Tue 10:33:06 AM 43.7131 -72.2161 322° Northwest 373 429 28,000  Level Boston Center
Tue 10:34:06 AM 43.7925 -72.3019 324° Northwest 367 422 28,000  Level Boston Center
Tue 10:35:06 AM 43.8739 -72.3853 323° Northwest 367 422 28,000  Level Boston Center
Tue 10:36:06 AM 43.9489 -72.4631 323° Northwest 348 400 28,000  Level Boston Center
Tue 10:37:06 AM 44.0197 -72.5383 323° Northwest 348 400 28,000  Level Boston Center
Tue 10:38:06 AM 44.1111 -72.6339 323° Northwest 358 412 28,000  Level Boston Center
Tue 10:39:06 AM 44.1922 -72.7181 323° Northwest 368 423 28,000  Level Boston Center
Tue 10:40:06 AM 44.2733 -72.8025 323° Northwest 368 423 28,000  Level Boston Center
Tue 10:41:06 AM 44.3583 -72.8931 323° Northwest 374 430 28,000 -300 Level Boston Center
Tue 10:42:06 AM 44.4433 -72.9839 323° Northwest 379 436 27,400 -800 Descending Boston Center
Tue 10:43:06 AM 44.5344 -73.0808 323° Northwest 398 458 26,400 -1,050 Descending Boston Center
Tue 10:44:06 AM 44.6278 -73.1781 320° Northwest 414 476 25,300 -992 Descending Boston Center
Tue 10:45:13 AM 44.7167 -73.2833 329° Northwest 420 483 24,300 -1,039 Descending Montreal Center
Tue 10:46:13 AM 44.8167 -73.3667 320° Northwest 420 483 23,100 -1,650 Descending Montreal Center
Tue 10:47:13 AM 44.9167 -73.4833 320° Northwest 410 472 21,000 -2,400 Descending Montreal Center
Tue 10:48:13 AM 45.0000 -73.5833 North 390 449 18,300 -2,700 Descending Montreal Center
Tue 10:49:13 AM 45.1000 -73.5667 North 380 437 15,600 -2,800 Descending Montreal Center
Tue 10:50:13 AM 45.2000 -73.5500 16° North 370 426 12,700 -2,600 Descending Montreal Center
Tue 10:51:13 AM 45.2833 -73.5167 16° North 340 391 10,400 -1,800 Descending Montreal Center
Tue 10:52:13 AM 45.3667 -73.4833 360° North 290 334 9,100 -1,900 Descending Montreal Center
Tue 10:53:13 AM 45.4500 -73.4833 360° North 270 311 6,600 -2,250 Descending Montreal Center
Tue 10:54:13 AM 45.5167 -73.4833 332° Northwest 270 311 4,600 -1,800 Descending Montreal Center
Tue 10:55:13 AM 45.5833 -73.5333 250° West 250 288 3,000 -800 Descending Montreal Center
Tue 10:56:13 AM 45.5667 -73.6000 250° West 210 242 3,000  Level Montreal Center

Login

Don't have an account? Register now (free) for customized features, flight alerts, and more!